createdAt,value
2022-11-21T00:02:54.461Z,101930.13
2022-11-21T00:07:59.930Z,101933.72
2022-11-21T00:13:03.499Z,101925.06
2022-11-21T00:18:07.094Z,101927.03
2022-11-21T00:23:13.395Z,101932.56
2022-11-21T00:28:16.943Z,101928.91
2022-11-21T00:33:20.464Z,101932.06
2022-11-21T00:38:25.665Z,101928.56
2022-11-21T00:43:29.269Z,101936.84
2022-11-21T00:48:33.704Z,101934.06
2022-11-21T00:53:38.921Z,101928.41
2022-11-21T00:58:42.498Z,101919.69
2022-11-21T01:03:46.085Z,101924.16
2022-11-21T01:08:51.977Z,101920.84
2022-11-21T01:13:55.518Z,101928.09
2022-11-21T01:18:59.136Z,101926.59
2022-11-21T01:24:04.528Z,101926.72
2022-11-21T01:29:08.131Z,101925.06
2022-11-21T01:34:11.689Z,101930.41
2022-11-21T01:39:16.878Z,101926.16
2022-11-21T01:44:21.569Z,101927.16
2022-11-21T01:49:28.179Z,101923.91
2022-11-21T01:54:40.225Z,101919.69
2022-11-21T01:59:47.687Z,101923.34
2022-11-21T02:04:52.993Z,101926.25
2022-11-21T02:10:01.787Z,101932.56
2022-11-21T02:15:06.065Z,101930.22
2022-11-21T02:20:12.197Z,101927.72
2022-11-21T02:25:18.802Z,101937.31
2022-11-21T02:30:22.827Z,101940.00
2022-11-21T02:35:27.246Z,101940.91
2022-11-21T02:40:37.318Z,101944.44
2022-11-21T02:45:42.543Z,101947.91
2022-11-21T02:50:47.659Z,101947.16
2022-11-21T02:55:52.884Z,101951.53
2022-11-21T03:00:56.469Z,101946.34
2022-11-21T03:06:00.072Z,101946.34
2022-11-21T03:11:05.304Z,101953.28
2022-11-21T03:16:08.860Z,101951.47
2022-11-21T03:21:12.458Z,101941.91
2022-11-21T03:26:17.733Z,101936.72
2022-11-21T03:31:21.309Z,101949.78
2022-11-21T03:36:24.939Z,101949.84
2022-11-21T03:41:30.183Z,101951.56
2022-11-21T03:46:37.650Z,101961.16
2022-11-21T03:51:41.456Z,101950.69
2022-11-21T03:56:46.691Z,101955.06
2022-11-21T04:01:50.324Z,101955.91
2022-11-21T04:06:53.889Z,101951.56
2022-11-21T04:11:59.069Z,101957.63
2022-11-21T04:17:02.694Z,101959.41
2022-11-21T04:22:06.245Z,101966.31
2022-11-21T04:27:11.462Z,101975.03
2022-11-21T04:32:14.997Z,101981.94
2022-11-21T04:37:18.594Z,101982.81
2022-11-21T04:42:23.791Z,101986.28
2022-11-21T04:47:27.373Z,101991.47
2022-11-21T04:52:30.933Z,101994.06
2022-11-21T04:57:37.325Z,101988.84
2022-11-21T05:02:40.137Z,101996.59
2022-11-21T05:07:43.813Z,101994.91
2022-11-21T05:12:56.767Z,101996.66
2022-11-21T05:18:00.729Z,101983.63
2022-11-21T05:23:04.252Z,101985.28
2022-11-21T05:28:10.064Z,101989.56
2022-11-21T05:33:13.641Z,101994.75
2022-11-21T05:38:17.257Z,101989.53
2022-11-21T05:43:22.466Z,101999.09
2022-11-21T05:48:26.023Z,102006.97
2022-11-21T05:53:29.629Z,102004.28
2022-11-21T05:58:35.172Z,101999.81
2022-11-21T06:03:40.716Z,102004.06
2022-11-21T06:08:45.541Z,102009.19
2022-11-21T06:13:50.802Z,102015.09
2022-11-21T06:18:58.356Z,102018.56
2022-11-21T06:24:02.357Z,102011.50
2022-11-21T06:29:07.592Z,102014.81
2022-11-21T06:34:11.114Z,102012.19
2022-11-21T06:39:14.643Z,102016.47
2022-11-21T06:44:20.279Z,102012.13
2022-11-21T06:49:23.862Z,102006.13
2022-11-21T06:54:27.409Z,102002.59
2022-11-21T06:59:32.561Z,102014.63
2022-11-21T07:04:36.153Z,102013.59
2022-11-21T07:09:39.765Z,102009.25
2022-11-21T07:14:45.047Z,102009.31
2022-11-21T07:19:48.632Z,102003.22
2022-11-21T07:24:52.164Z,102004.78
2022-11-21T07:29:57.369Z,102003.06
2022-11-21T07:35:00.911Z,102005.47
2022-11-21T07:40:04.741Z,102008.97
2022-11-21T07:45:10.999Z,102010.69
2022-11-21T07:50:15.035Z,101995.06
2022-11-21T07:55:19.344Z,101994.09
2022-11-21T08:00:24.879Z,101996.66
2022-11-21T08:05:28.643Z,101997.47
2022-11-21T08:10:32.256Z,102000.81
2022-11-21T08:15:37.665Z,101994.69
2022-11-21T08:20:41.635Z,101996.41
2022-11-21T08:25:45.443Z,101985.97
2022-11-21T08:30:50.810Z,101987.56
2022-11-21T08:35:54.347Z,101988.56
2022-11-21T08:40:57.902Z,101980.88
2022-11-21T08:46:03.110Z,101972.69
2022-11-21T08:51:06.646Z,101968.09
2022-11-21T08:56:10.276Z,101971.09
2022-11-21T09:01:15.586Z,101963.41
2022-11-21T09:06:19.204Z,101968.47
2022-11-21T09:11:22.798Z,101966.72
2022-11-21T09:16:28.423Z,101965.94
2022-11-21T09:21:32.000Z,101957.34
2022-11-21T09:26:35.569Z,101961.47
2022-11-21T09:31:40.875Z,101955.41
2022-11-21T09:36:44.439Z,101962.28
2022-11-21T09:42:01.728Z,101959.81
2022-11-21T09:47:19.645Z,101957.31
2022-11-21T09:52:27.069Z,101964.16
2022-11-21T09:57:34.875Z,101962.31
2022-11-21T10:02:41.075Z,101956.19
2022-11-21T10:07:47.216Z,101948.88
2022-11-21T10:13:06.928Z,101949.72
2022-11-21T10:18:37.608Z,101952.63
2022-11-21T10:23:55.840Z,101957.41
2022-11-21T10:29:04.381Z,101949.72
2022-11-21T10:34:14.310Z,101950.41
2022-11-21T10:39:21.942Z,101949.66
2022-11-21T10:44:28.357Z,101937.44
2022-11-21T10:49:35.042Z,101942.63
2022-11-21T10:55:08.731Z,101929.56
2022-11-21T11:00:21.639Z,101932.16
2022-11-21T11:05:28.202Z,101929.50
2022-11-21T11:10:31.632Z,101929.47
2022-11-21T11:15:35.725Z,101935.38
2022-11-21T11:20:42.527Z,101930.91
2022-11-21T11:25:50.850Z,101932.69
2022-11-21T11:30:56.110Z,101926.84
2022-11-21T11:36:14.041Z,101929.56
2022-11-21T11:41:38.109Z,101929.47
2022-11-21T11:46:47.872Z,101932.06
2022-11-21T11:51:57.696Z,101924.25
2022-11-21T11:57:01.693Z,101930.31
2022-11-21T12:02:17.499Z,101929.63
2022-11-21T12:08:38.779Z,101924.38
2022-11-21T12:12:55.463Z,101936.41
2022-11-21T12:18:13.043Z,101932.00
2022-11-21T12:23:18.845Z,101924.78
2022-11-21T12:28:35.571Z,101926.69
2022-11-21T12:33:43.857Z,101925.25
2022-11-21T12:39:06.844Z,101930.31
2022-11-21T12:44:21.940Z,101935.31
2022-11-21T12:49:34.890Z,101935.84
2022-11-21T12:55:20.366Z,101940.31
2022-11-21T13:00:29.781Z,101943.53
2022-11-21T13:05:38.596Z,101934.03
2022-11-21T13:10:51.717Z,101940.16
2022-11-21T13:16:01.490Z,101935.03
2022-11-21T13:21:05.091Z,101947.84
2022-11-21T13:26:49.597Z,101942.69
2022-11-21T13:31:54.782Z,101944.31
2022-11-21T13:36:58.431Z,101953.53
2022-11-21T13:42:17.137Z,101949.22
2022-11-21T13:47:57.492Z,101937.81
2022-11-21T13:53:08.661Z,101934.84
2022-11-21T13:58:24.126Z,101933.59
2022-11-21T14:03:49.201Z,101929.66
2022-11-21T14:09:31.449Z,101942.16
2022-11-21T14:14:39.415Z,101942.69
2022-11-21T14:19:44.729Z,101952.06
2022-11-21T14:24:48.412Z,101959.69
2022-11-21T14:29:52.034Z,101954.97
2022-11-21T14:35:08.919Z,101959.56
2022-11-21T14:40:13.225Z,101967.81
2022-11-21T14:45:18.960Z,101965.50
2022-11-21T14:50:29.673Z,101971.19
2022-11-21T14:55:34.272Z,101970.34
2022-11-21T15:00:59.717Z,101980.44
2022-11-21T15:06:07.064Z,101985.09
2022-11-21T15:11:12.007Z,101990.19
2022-11-21T15:16:16.027Z,101986.41
2022-11-21T15:21:21.262Z,101988.69
2022-11-21T15:26:30.202Z,101993.75
2022-11-21T15:31:34.049Z,102002.16
2022-11-21T15:36:39.374Z,101994.81
2022-11-21T15:41:42.988Z,101999.59
2022-11-21T15:46:47.234Z,102002.44
2022-11-21T15:52:07.011Z,102004.44
2022-11-21T15:57:12.978Z,102013.44
2022-11-21T16:02:17.998Z,102017.22
2022-11-21T16:07:23.270Z,102025.25
2022-11-21T16:12:26.838Z,102027.25
2022-11-21T16:17:30.411Z,102035.28
2022-11-21T16:22:35.626Z,102039.16
2022-11-21T16:27:39.167Z,102031.72
2022-11-21T16:32:42.685Z,102038.09
2022-11-21T16:37:47.895Z,102040.06
2022-11-21T16:42:51.449Z,102036.72
2022-11-21T16:47:54.997Z,102055.94
2022-11-21T16:53:00.399Z,102056.75
2022-11-21T16:58:04.126Z,102054.06
2022-11-21T17:03:07.677Z,102059.19
2022-11-21T17:08:12.849Z,102055.53
2022-11-21T17:13:16.446Z,102050.81
2022-11-21T17:18:19.971Z,102047.06
2022-11-21T17:23:25.151Z,102043.44
2022-11-21T17:28:28.805Z,102044.31
2022-11-21T17:33:32.352Z,102044.06
2022-11-21T17:38:37.610Z,102043.78
2022-11-21T17:43:41.400Z,102039.09
2022-11-21T17:48:51.309Z,102044.31
2022-11-21T17:53:59.740Z,102040.59
2022-11-21T17:59:03.967Z,102051.72
2022-11-21T18:04:14.719Z,102048.06
2022-11-21T18:09:20.390Z,102043.34
2022-11-21T18:14:24.082Z,102040.41
2022-11-21T18:19:27.644Z,102043.81
2022-11-21T18:24:33.754Z,102038.25
2022-11-21T18:29:37.270Z,102032.81
2022-11-21T18:34:41.049Z,102030.66
2022-11-21T18:39:46.272Z,102028.75
2022-11-21T18:44:49.835Z,102018.25
2022-11-21T18:49:53.470Z,102020.94
2022-11-21T18:54:58.647Z,102016.44
2022-11-21T19:00:02.212Z,102006.66
2022-11-21T19:05:06.439Z,102003.63
2022-11-21T19:10:41.208Z,101993.69
2022-11-21T19:15:36.722Z,101987.25
2022-11-21T19:20:41.768Z,101978.16
2022-11-21T19:25:46.935Z,101958.75
2022-11-21T19:30:50.547Z,101955.97
2022-11-21T19:35:54.164Z,101950.44
2022-11-21T19:41:04.160Z,101936.88
2022-11-21T19:46:07.989Z,101932.19
2022-11-21T19:51:12.143Z,101925.00
2022-11-21T19:56:18.760Z,101912.50
2022-11-21T20:01:24.241Z,101905.75
2022-11-21T20:06:29.557Z,101914.16
2022-11-21T20:11:36.081Z,101903.38
2022-11-21T20:16:40.951Z,101903.78
2022-11-21T20:21:45.401Z,101901.91
2022-11-21T20:26:50.628Z,101891.13
2022-11-21T20:31:54.194Z,101897.13
2022-11-21T20:37:00.668Z,101886.50
2022-11-21T20:42:06.874Z,101874.72
2022-11-21T20:47:10.467Z,101875.38
2022-11-21T20:57:39.159Z,101860.44
2022-11-21T21:02:42.686Z,101857.84
2022-11-21T21:07:46.346Z,101860.41
2022-11-21T21:12:51.590Z,101848.88
2022-11-21T21:17:55.925Z,101845.63
2022-11-21T21:22:59.496Z,101847.94
2022-11-21T21:28:04.873Z,101846.56
2022-11-21T21:33:08.741Z,101841.06
2022-11-21T21:38:12.683Z,101837.84
2022-11-21T21:43:17.863Z,101832.91
2022-11-21T21:48:21.423Z,101819.19
2022-11-21T21:53:24.985Z,101818.44
2022-11-21T21:58:30.640Z,101802.56
2022-11-21T22:03:34.606Z,101803.34
2022-11-21T22:08:39.717Z,101807.59
2022-11-21T22:13:46.294Z,101811.50
2022-11-21T22:18:49.961Z,101809.75
2022-11-21T22:24:23.510Z,101805.63
2022-11-21T22:29:18.933Z,101801.56
2022-11-21T22:34:22.730Z,101798.19
2022-11-21T22:39:27.223Z,101802.81
2022-11-21T22:44:32.758Z,101808.94
2022-11-21T22:49:35.723Z,101811.13
2022-11-21T22:54:39.254Z,101806.16
2022-11-21T22:59:44.444Z,101801.97
2022-11-21T23:04:48.040Z,101806.44
2022-11-21T23:09:51.647Z,101805.03
2022-11-21T23:14:56.912Z,101806.19
2022-11-21T23:20:00.545Z,101792.41
2022-11-21T23:25:04.251Z,101781.81
2022-11-21T23:30:10.998Z,101785.00
2022-11-21T23:35:14.674Z,101778.25
2022-11-21T23:40:18.469Z,101790.09
2022-11-21T23:45:23.804Z,101779.59
2022-11-21T23:50:27.404Z,101779.22
2022-11-21T23:55:31.036Z,101789.47
